Time;durP1;ratioP1;P1;durP2;ratioP2;P2;SDS_P1;SDS_P2;PMS_P1;PMS_P2;Temp;Humidity;BMP_temperature;BMP_pressure;BME280_temperature;BME280_humidity;BME280_pressure;Samples;Min_cycle;Max_cycle;Signal;HPM_P1;HPM_P2
2022/05/13 00:01:25;;;;;;;9.57;6.47;;;25.20;99.90;;;;;;5051704;28;19909;-52
2022/05/13 00:03:51;;;;;;;9.93;6.15;;;25.30;99.90;;;;;;5051595;28;20033;-52
2022/05/13 00:06:17;;;;;;;9.15;6.57;;;25.20;99.90;;;;;;5051691;28;20027;-52
2022/05/13 00:08:43;;;;;;;9.55;6.50;;;25.20;99.90;;;;;;5051698;28;20025;-52
2022/05/13 00:11:09;;;;;;;8.32;6.90;;;25.20;99.90;;;;;;5051786;28;20394;-53
2022/05/13 00:13:36;;;;;;;9.82;6.82;;;25.20;99.90;;;;;;5051542;28;20286;-52
2022/05/13 00:16:04;;;;;;;9.93;6.65;;;25.20;99.90;;;;;;5051588;28;20067;-52
2022/05/13 00:18:30;;;;;;;9.32;6.90;;;25.20;99.90;;;;;;5051520;28;20477;-52
2022/05/13 00:20:56;;;;;;;8.80;6.60;;;25.20;99.90;;;;;;5051341;28;20103;-53
2022/05/13 00:23:21;;;;;;;9.60;7.20;;;25.20;99.90;;;;;;5051355;28;20090;-52
2022/05/13 00:25:47;;;;;;;8.95;7.00;;;25.20;99.90;;;;;;5051542;28;20203;-52
2022/05/13 00:28:14;;;;;;;8.63;6.07;;;25.20;99.90;;;;;;5051580;28;20021;-53
2022/05/13 00:30:44;;;;;;;10.27;6.90;;;25.20;99.90;;;;;;5051554;28;20354;-52
2022/05/13 00:33:09;;;;;;;10.93;7.45;;;25.10;99.90;;;;;;5051352;28;20461;-53
2022/05/13 00:35:36;;;;;;;11.20;7.13;;;25.20;99.90;;;;;;5051328;28;20029;-52
2022/05/13 00:38:02;;;;;;;9.52;7.05;;;25.10;99.90;;;;;;5051201;28;20013;-52
2022/05/13 00:40:28;;;;;;;8.43;6.60;;;25.10;99.90;;;;;;5051171;28;20028;-53
2022/05/13 00:43:04;;;;;;;11.02;6.97;;;25.10;99.90;;;;;;5051580;28;20094;-52
2022/05/13 00:45:33;;;;;;;10.73;6.97;;;25.10;99.90;;;;;;5057895;28;20465;-53
2022/05/13 00:48:00;;;;;;;10.50;6.90;;;25.20;99.90;;;;;;5057939;28;20032;-53
2022/05/13 00:50:27;;;;;;;10.90;6.83;;;25.10;99.90;;;;;;5057828;28;20041;-52
2022/05/13 00:52:53;;;;;;;10.10;6.53;;;25.10;99.90;;;;;;5057882;28;20738;-53
2022/05/13 00:55:31;;;;;;;8.80;6.28;;;25.10;99.90;;;;;;5057742;28;20082;-52
2022/05/13 00:57:58;;;;;;;8.43;6.15;;;25.10;99.90;;;;;;5057795;28;20472;-52
2022/05/13 01:00:25;;;;;;;10.27;6.93;;;25.10;99.90;;;;;;5069626;22;20455;-49
2022/05/13 01:02:51;;;;;;;11.88;7.45;;;25.10;99.90;;;;;;5057551;28;20068;-50
2022/05/13 01:05:18;;;;;;;9.02;6.15;;;25.10;99.90;;;;;;5056303;28;20048;-50
2022/05/13 01:07:44;;;;;;;8.25;6.57;;;25.10;99.90;;;;;;5056446;28;20027;-50
2022/05/13 01:10:19;;;;;;;9.52;7.00;;;25.10;99.90;;;;;;5057699;28;20431;-50
2022/05/13 01:12:50;;;;;;;9.07;6.65;;;25.10;99.90;;;;;;5057585;28;20028;-49
2022/05/13 01:15:23;;;;;;;8.93;6.47;;;25.10;99.90;;;;;;5057525;28;20465;-49
2022/05/13 01:18:06;;;;;;;8.60;5.93;;;25.00;99.90;;;;;;5057431;28;20361;-49
2022/05/13 01:20:46;;;;;;;9.00;6.25;;;25.00;99.90;;;;;;5057868;28;20083;-50
2022/05/13 01:23:19;;;;;;;8.18;6.30;;;25.00;99.90;;;;;;5057396;28;20069;-50
2022/05/13 01:25:47;;;;;;;10.20;6.40;;;25.00;99.90;;;;;;5057623;28;20105;-50
2022/05/13 01:28:23;;;;;;;9.38;6.20;;;25.00;99.90;;;;;;5057583;28;20468;-49
2022/05/13 01:30:53;;;;;;;9.73;6.35;;;25.00;99.90;;;;;;5057576;28;20528;-50
2022/05/13 01:33:20;;;;;;;8.32;6.60;;;25.00;99.90;;;;;;5057337;28;20025;-50
2022/05/13 01:35:49;;;;;;;7.40;6.13;;;25.00;99.90;;;;;;5057538;28;20025;-50
2022/05/13 01:38:16;;;;;;;10.30;6.43;;;25.00;99.90;;;;;;5057463;28;20469;-50
2022/05/13 01:40:42;;;;;;;8.18;5.95;;;25.00;99.90;;;;;;5057288;28;20104;-50
2022/05/13 01:43:09;;;;;;;11.65;6.80;;;25.00;99.90;;;;;;5057210;28;20124;-49
2022/05/13 01:45:35;;;;;;;9.30;6.40;;;25.00;99.90;;;;;;5057429;28;20483;-50
2022/05/13 01:48:02;;;;;;;10.65;6.57;;;25.00;99.90;;;;;;5057584;28;20107;-50
2022/05/13 01:50:28;;;;;;;7.17;6.30;;;25.00;99.90;;;;;;5057179;28;20240;-49
2022/05/13 01:52:54;;;;;;;8.80;6.15;;;25.00;99.90;;;;;;5057133;28;20076;-49
2022/05/13 01:55:21;;;;;;;9.82;5.93;;;25.00;99.90;;;;;;5054986;28;20024;-49
2022/05/13 01:57:47;;;;;;;11.18;6.13;;;25.00;99.90;;;;;;5054024;28;20032;-50
2022/05/13 02:00:14;;;;;;;8.77;6.75;;;25.00;99.90;;;;;;5095075;22;20063;-48
2022/05/13 02:05:24;;;;;;;9.55;6.45;;;24.90;99.90;;;;;;5074162;28;20043;-48
2022/05/13 02:07:51;;;;;;;7.35;5.45;;;24.90;99.90;;;;;;5073813;28;20112;-47
2022/05/13 02:10:17;;;;;;;8.47;6.27;;;24.90;99.90;;;;;;5073861;28;20472;-48
2022/05/13 02:12:44;;;;;;;9.10;6.00;;;24.90;99.90;;;;;;5073829;28;20051;-48
2022/05/13 02:15:10;;;;;;;10.73;5.85;;;24.90;99.90;;;;;;5073715;28;20017;-47
2022/05/13 02:17:36;;;;;;;8.98;6.15;;;24.90;99.90;;;;;;5073882;28;20032;-48
2022/05/13 02:20:04;;;;;;;9.15;6.22;;;24.90;99.90;;;;;;5073802;28;20024;-47
2022/05/13 02:22:30;;;;;;;7.10;5.47;;;24.90;99.90;;;;;;5073372;28;20040;-47
2022/05/13 02:24:55;;;;;;;9.13;5.50;;;24.90;99.90;;;;;;5073670;28;20512;-47
2022/05/13 02:27:21;;;;;;;9.07;5.90;;;24.90;99.90;;;;;;5073542;28;20032;-48
2022/05/13 02:29:47;;;;;;;8.63;5.75;;;24.90;99.90;;;;;;5073424;28;20028;-47
2022/05/13 02:32:13;;;;;;;10.23;6.13;;;24.90;99.90;;;;;;5073421;28;20037;-48
2022/05/13 02:34:38;;;;;;;7.78;5.18;;;24.90;99.90;;;;;;5073282;28;20025;-47
2022/05/13 02:37:04;;;;;;;9.93;5.88;;;24.90;99.90;;;;;;5073525;28;20408;-48
2022/05/13 02:39:30;;;;;;;7.55;5.60;;;25.00;99.90;;;;;;5071980;28;20461;-48
2022/05/13 02:41:56;;;;;;;7.55;5.32;;;24.90;99.90;;;;;;5073246;28;20039;-48
2022/05/13 02:44:23;;;;;;;6.85;4.85;;;25.00;99.90;;;;;;5073259;28;20028;-48
2022/05/13 02:46:49;;;;;;;8.40;5.82;;;24.90;99.90;;;;;;5073225;28;20028;-47
2022/05/13 02:49:33;;;;;;;7.35;5.70;;;24.90;99.90;;;;;;5073141;28;20043;-48
2022/05/13 02:51:59;;;;;;;8.23;5.50;;;24.90;99.90;;;;;;5073080;28;20024;-48
2022/05/13 02:54:25;;;;;;;7.57;5.72;;;24.90;99.90;;;;;;5071771;28;20524;-48
2022/05/13 02:56:50;;;;;;;8.55;5.90;;;25.00;99.90;;;;;;5073048;28;20109;-47
2022/05/13 02:59:16;;;;;;;7.85;4.95;;;24.90;99.90;;;;;;5073435;28;20040;-47
2022/05/13 03:01:42;;;;;;;6.65;4.90;;;24.90;99.90;;;;;;5072497;28;20046;-48
2022/05/13 03:04:26;;;;;;;8.52;5.60;;;24.90;99.90;;;;;;5072990;28;20035;-47
2022/05/13 03:06:53;;;;;;;7.60;5.43;;;24.90;99.90;;;;;;5071554;28;20013;-47
2022/05/13 03:09:19;;;;;;;10.57;5.97;;;24.90;99.90;;;;;;5072644;28;20032;-47
2022/05/13 03:11:45;;;;;;;10.18;5.07;;;25.00;99.90;;;;;;5072576;28;20098;-47
2022/05/13 03:14:10;;;;;;;7.88;5.72;;;24.90;99.90;;;;;;5072564;28;20480;-48
2022/05/13 03:16:36;;;;;;;6.47;4.97;;;25.00;99.90;;;;;;5072780;28;20515;-48
2022/05/13 03:19:03;;;;;;;8.07;5.00;;;24.90;99.90;;;;;;5072504;28;20013;-47
2022/05/13 03:24:13;;;;;;;7.28;5.20;;;25.00;99.90;;;;;;5072710;28;20245;-47
2022/05/13 03:26:39;;;;;;;8.93;5.60;;;24.90;99.90;;;;;;5072510;28;20480;-47
2022/05/13 03:29:04;;;;;;;6.13;4.97;;;24.90;99.90;;;;;;5072445;28;20028;-47
2022/05/13 03:31:34;;;;;;;7.82;5.55;;;25.00;99.90;;;;;;5072406;28;20024;-48
2022/05/13 03:34:00;;;;;;;7.70;5.78;;;25.00;99.90;;;;;;5072156;28;20036;-47
2022/05/13 03:36:26;;;;;;;7.40;5.35;;;25.00;99.90;;;;;;5072229;28;20081;-47
2022/05/13 03:39:10;;;;;;;9.77;5.40;;;24.90;99.90;;;;;;5072159;28;20425;-47
2022/05/13 03:41:35;;;;;;;7.00;4.60;;;25.00;99.90;;;;;;5072153;28;20429;-47
2022/05/13 03:44:01;;;;;;;6.18;5.22;;;24.90;99.90;;;;;;5071797;28;20029;-47
2022/05/13 03:46:27;;;;;;;8.98;5.22;;;24.90;99.90;;;;;;5071791;28;20154;-47
2022/05/13 03:49:11;;;;;;;7.22;4.88;;;24.90;99.90;;;;;;5071974;28;20043;-47
2022/05/13 03:51:37;;;;;;;7.43;5.25;;;24.90;99.90;;;;;;5072008;28;20028;-47
2022/05/13 03:54:03;;;;;;;7.78;4.82;;;24.90;99.90;;;;;;5071741;28;20044;-47
2022/05/13 03:56:29;;;;;;;6.05;5.20;;;24.90;99.90;;;;;;5071875;28;20044;-47
2022/05/13 03:58:55;;;;;;;7.60;4.70;;;24.90;99.90;;;;;;5071779;28;20109;-47
2022/05/13 04:01:39;;;;;;;5.40;4.90;;;24.90;99.90;;;;;;5068087;22;20056;-51
2022/05/13 04:04:05;;;;;;;5.85;4.85;;;24.90;99.90;;;;;;5051683;28;20043;-51
2022/05/13 04:09:15;;;;;;;6.38;5.03;;;24.90;99.90;;;;;;5050751;28;20032;-51
2022/05/13 04:16:04;;;;;;;6.25;4.85;;;24.90;99.90;;;;;;5051884;28;20403;-51
2022/05/13 04:17:12;;;;;;;6.80;5.28;;;24.90;99.90;;;;;;5051457;28;20462;-51
2022/05/13 04:19:38;;;;;;;6.03;4.88;;;24.90;99.90;;;;;;5051299;28;20112;-51
2022/05/13 04:22:04;;;;;;;7.60;5.43;;;24.90;99.90;;;;;;5051260;28;20061;-52
2022/05/13 04:24:30;;;;;;;7.93;5.00;;;24.90;99.90;;;;;;5051318;28;20056;-51
2022/05/13 04:26:56;;;;;;;6.78;4.82;;;24.90;99.90;;;;;;5051273;28;20064;-51
2022/05/13 04:29:21;;;;;;;5.30;4.50;;;24.90;99.90;;;;;;5051238;28;20033;-51
2022/05/13 04:31:47;;;;;;;6.50;5.25;;;24.90;99.90;;;;;;5051302;28;20473;-51
2022/05/13 04:34:13;;;;;;;7.43;5.30;;;24.90;99.90;;;;;;5051382;28;20025;-51
2022/05/13 04:36:39;;;;;;;6.75;5.25;;;24.90;99.90;;;;;;5051423;28;20096;-51
2022/05/13 04:39:06;;;;;;;6.25;4.53;;;24.90;99.90;;;;;;5051096;28;20116;-51
2022/05/13 04:44:17;;;;;;;6.43;4.63;;;24.90;99.90;;;;;;5051170;28;20036;-51
2022/05/13 04:46:44;;;;;;;5.72;4.07;;;24.90;99.90;;;;;;5050055;28;20032;-51
2022/05/13 04:49:10;;;;;;;5.80;4.47;;;24.90;99.90;;;;;;5051310;28;20025;-51
2022/05/13 04:51:37;;;;;;;5.40;4.57;;;24.90;99.90;;;;;;5051166;28;20025;-51
2022/05/13 04:54:03;;;;;;;7.40;4.37;;;24.90;99.90;;;;;;5051117;28;20029;-52
2022/05/13 04:56:30;;;;;;;6.10;4.37;;;24.90;99.90;;;;;;5051143;28;20387;-51
2022/05/13 04:58:57;;;;;;;6.53;4.43;;;24.90;99.90;;;;;;5051061;28;20273;-51
2022/05/13 05:01:41;;;;;;;7.17;4.60;;;24.90;99.90;;;;;;5050794;28;20048;-51
2022/05/13 05:04:07;;;;;;;6.40;5.18;;;24.90;99.90;;;;;;5050831;28;20258;-52
2022/05/13 05:06:33;;;;;;;6.18;4.50;;;24.90;99.90;;;;;;5050850;28;20056;-51
2022/05/13 05:08:58;;;;;;;6.25;4.30;;;24.80;99.90;;;;;;5051157;28;20021;-51
2022/05/13 05:11:24;;;;;;;8.00;5.28;;;24.80;99.90;;;;;;5050824;28;20489;-51
2022/05/13 05:13:51;;;;;;;6.50;4.65;;;24.90;99.90;;;;;;5050753;28;20017;-51
2022/05/13 05:16:22;;;;;;;5.85;4.35;;;24.80;99.90;;;;;;5050737;28;20071;-51
2022/05/13 05:18:47;;;;;;;5.65;4.10;;;24.80;99.90;;;;;;5049460;28;20494;-51
2022/05/13 05:21:13;;;;;;;6.60;4.57;;;24.80;99.90;;;;;;5049576;28;20185;-51
2022/05/13 05:23:42;;;;;;;5.82;4.45;;;24.80;99.90;;;;;;5050800;28;20033;-51
2022/05/13 05:26:08;;;;;;;5.68;4.32;;;24.80;99.90;;;;;;5050681;28;20036;-51
2022/05/13 05:28:37;;;;;;;6.75;4.50;;;24.80;99.90;;;;;;5050735;28;20025;-51
2022/05/13 05:31:03;;;;;;;5.40;4.55;;;24.80;99.90;;;;;;5052367;28;20025;-51
2022/05/13 05:33:29;;;;;;;5.70;4.32;;;24.80;99.90;;;;;;5054462;28;20029;-51
2022/05/13 05:35:56;;;;;;;5.55;4.25;;;24.80;99.90;;;;;;5054404;28;20476;-51
2022/05/13 05:38:22;;;;;;;6.63;4.70;;;24.80;99.90;;;;;;5054360;28;20025;-51
2022/05/13 05:40:48;;;;;;;4.85;4.15;;;24.90;99.90;;;;;;5054328;28;20025;-53
2022/05/13 05:43:16;;;;;;;7.10;4.72;;;24.80;99.90;;;;;;5054194;28;20041;-51
2022/05/13 05:45:42;;;;;;;6.05;4.43;;;24.80;99.90;;;;;;5054345;28;20052;-51
2022/05/13 05:48:11;;;;;;;8.48;4.63;;;24.80;99.90;;;;;;5054165;28;20025;-51
2022/05/13 05:50:37;;;;;;;4.85;3.92;;;24.80;99.90;;;;;;5054204;28;20053;-51
2022/05/13 05:53:02;;;;;;;6.07;4.75;;;24.80;99.90;;;;;;5053946;28;20056;-52
2022/05/13 05:58:15;;;;;;;5.38;3.80;;;24.80;99.90;;;;;;5054387;28;20036;-52
2022/05/13 06:00:45;;;;;;;5.80;4.55;;;24.80;99.90;;;;;;5053832;28;20520;-52
2022/05/13 06:03:11;;;;;;;10.82;4.88;;;24.80;99.90;;;;;;5053912;28;20044;-53
2022/05/13 06:05:37;;;;;;;8.98;4.20;;;24.80;99.90;;;;;;5053875;28;20025;-52
2022/05/13 06:08:21;;;;;;;7.32;4.50;;;24.90;99.90;;;;;;5053676;28;20025;-52
2022/05/13 06:10:47;;;;;;;9.27;4.05;;;24.90;99.90;;;;;;5053895;28;20021;-52
2022/05/13 06:13:14;;;;;;;6.30;4.45;;;24.90;99.90;;;;;;5053853;28;20036;-52
2022/05/13 06:18:24;;;;;;;7.25;4.47;;;24.90;99.90;;;;;;5053549;28;20036;-52
2022/05/13 06:20:50;;;;;;;6.10;4.63;;;24.90;99.90;;;;;;5053661;28;20376;-52
2022/05/13 06:23:16;;;;;;;6.68;4.45;;;24.90;99.90;;;;;;5053649;28;20060;-53
2022/05/13 06:25:42;;;;;;;6.03;4.53;;;24.90;99.90;;;;;;5052422;28;20024;-53
2022/05/13 06:28:07;;;;;;;7.40;5.13;;;24.90;99.90;;;;;;5053466;28;20079;-52
2022/05/13 06:30:36;;;;;;;6.45;4.22;;;24.90;99.90;;;;;;5053553;28;20033;-53
2022/05/13 06:33:04;;;;;;;6.80;4.22;;;24.90;99.90;;;;;;5053402;28;20021;-53
2022/05/13 06:35:32;;;;;;;5.65;4.03;;;24.90;99.90;;;;;;5053486;28;20411;-53
2022/05/13 06:37:58;;;;;;;5.18;4.47;;;24.90;99.90;;;;;;5053196;28;20029;-52
2022/05/13 06:40:24;;;;;;;6.85;3.90;;;24.90;99.90;;;;;;5052093;28;20029;-52
2022/05/13 06:42:51;;;;;;;7.53;4.60;;;24.90;99.90;;;;;;5052806;28;20033;-53
2022/05/13 06:45:17;;;;;;;6.38;4.18;;;24.90;99.90;;;;;;5053370;28;20021;-53
2022/05/13 06:47:43;;;;;;;8.57;5.13;;;24.90;99.90;;;;;;5052998;28;20029;-52
2022/05/13 06:50:13;;;;;;;6.75;4.15;;;24.90;99.90;;;;;;5053060;28;20129;-52
2022/05/13 06:52:39;;;;;;;8.10;4.18;;;24.90;99.90;;;;;;5052920;28;20538;-53
2022/05/13 06:55:05;;;;;;;9.05;4.70;;;24.90;99.90;;;;;;5052974;28;20025;-53
2022/05/13 06:57:31;;;;;;;7.27;3.97;;;24.90;99.90;;;;;;5052919;28;20036;-53
2022/05/13 06:59:57;;;;;;;7.75;4.65;;;24.90;99.90;;;;;;5052645;28;20446;-53
2022/05/13 07:02:23;;;;;;;8.30;4.45;;;24.90;99.90;;;;;;5052678;28;20033;-53
2022/05/13 07:04:49;;;;;;;7.47;4.40;;;24.90;99.90;;;;;;5053015;28;20022;-53
2022/05/13 07:07:15;;;;;;;8.32;4.63;;;24.90;99.90;;;;;;5052640;28;20484;-53
2022/05/13 07:09:41;;;;;;;6.95;4.53;;;25.00;99.90;;;;;;5051340;28;20025;-53
2022/05/13 07:12:08;;;;;;;9.35;5.00;;;25.00;99.90;;;;;;5052505;28;20036;-53
2022/05/13 07:14:35;;;;;;;7.78;5.05;;;25.00;99.90;;;;;;5051091;28;20024;-53
2022/05/13 07:17:02;;;;;;;5.70;4.25;;;25.00;99.90;;;;;;5052578;28;20029;-52
2022/05/13 07:19:27;;;;;;;7.27;4.40;;;25.00;99.90;;;;;;5052360;28;20079;-52
2022/05/13 07:21:53;;;;;;;8.25;5.07;;;25.00;99.90;;;;;;5052205;28;20033;-52
2022/05/13 07:24:19;;;;;;;7.97;4.10;;;25.00;99.90;;;;;;5052595;28;20472;-52
2022/05/13 07:26:45;;;;;;;6.50;3.47;;;25.00;99.90;;;;;;5052331;28;20025;-52
2022/05/13 07:29:12;;;;;;;6.95;4.35;;;25.00;99.90;;;;;;5052174;28;20032;-53
2022/05/13 07:31:39;;;;;;;7.13;4.00;;;25.00;99.90;;;;;;5052310;28;20470;-52
2022/05/13 07:34:05;;;;;;;;;;;25.00;99.90;;;;;;5052679;28;20032;-53
2022/05/13 07:36:32;;;;;;;8.30;4.60;;;25.00;99.90;;;;;;5052072;28;19909;-52
2022/05/13 07:41:42;;;;;;;8.57;4.55;;;25.00;99.90;;;;;;5052055;28;20072;-53
2022/05/13 07:44:08;;;;;;;9.40;5.15;;;25.00;99.90;;;;;;5052085;28;20049;-53
2022/05/13 07:46:34;;;;;;;5.68;3.83;;;25.00;99.90;;;;;;5051937;28;20026;-53
2022/05/13 07:49:00;;;;;;;5.85;4.60;;;25.00;99.90;;;;;;5051892;28;20023;-53
2022/05/13 07:51:26;;;;;;;7.97;4.65;;;25.00;99.90;;;;;;5051948;28;20500;-52
2022/05/13 07:53:53;;;;;;;7.68;5.15;;;25.00;99.90;;;;;;5051267;28;20033;-53
2022/05/13 07:56:19;;;;;;;6.47;4.45;;;25.00;99.90;;;;;;5052016;28;20103;-53
2022/05/13 07:58:45;;;;;;;6.40;4.70;;;25.00;99.90;;;;;;5051771;28;20442;-52
2022/05/13 08:01:11;;;;;;;7.75;4.90;;;25.00;99.90;;;;;;5051417;28;20083;-53
2022/05/13 08:03:37;;;;;;;8.07;4.85;;;25.00;99.90;;;;;;5051605;28;20469;-52
2022/05/13 08:06:04;;;;;;;7.75;5.07;;;25.00;99.90;;;;;;5051534;28;20049;-53
2022/05/13 08:08:35;;;;;;;7.10;5.30;;;25.00;99.90;;;;;;5051856;28;20029;-53
2022/05/13 08:11:04;;;;;;;7.80;4.90;;;25.00;99.90;;;;;;5051571;28;20038;-52
2022/05/13 08:13:31;;;;;;;8.70;5.60;;;25.00;99.90;;;;;;5051676;28;20477;-52
2022/05/13 08:15:58;;;;;;;7.70;5.28;;;25.00;99.90;;;;;;5051395;28;20025;-52
2022/05/13 08:18:24;;;;;;;9.77;6.43;;;25.00;99.90;;;;;;5051622;28;20465;-52
2022/05/13 08:20:51;;;;;;;7.53;4.90;;;25.00;99.90;;;;;;5051725;28;20059;-52
2022/05/13 08:23:18;;;;;;;7.97;4.80;;;25.00;99.90;;;;;;5051371;28;20036;-52
2022/05/13 08:25:47;;;;;;;7.22;5.18;;;25.00;99.90;;;;;;5051342;28;20021;-52
2022/05/13 08:28:14;;;;;;;7.18;4.93;;;25.00;99.90;;;;;;5051374;28;20480;-52
2022/05/13 08:30:40;;;;;;;7.22;5.07;;;25.00;99.90;;;;;;5051164;28;20074;-52
2022/05/13 08:33:25;;;;;;;8.68;6.18;;;25.00;99.90;;;;;;5051219;28;20076;-52
2022/05/13 08:36:00;;;;;;;8.23;4.90;;;25.00;99.90;;;;;;5051482;28;20041;-52
2022/05/13 08:38:29;;;;;;;6.55;4.93;;;25.00;99.90;;;;;;5051119;28;20025;-52
2022/05/13 08:41:01;;;;;;;10.23;5.60;;;25.00;99.90;;;;;;5051250;28;20032;-52
2022/05/13 08:43:37;;;;;;;9.52;5.22;;;25.00;99.90;;;;;;5050954;28;20112;-52
2022/05/13 08:46:13;;;;;;;8.32;5.75;;;25.00;99.90;;;;;;5051072;28;20051;-52
2022/05/13 08:48:59;;;;;;;8.95;5.90;;;25.00;99.90;;;;;;5050937;28;20083;-52
2022/05/13 08:51:35;;;;;;;7.63;4.85;;;25.00;99.90;;;;;;5051136;28;20495;-52
2022/05/13 08:54:16;;;;;;;6.65;5.43;;;25.00;99.90;;;;;;5050839;28;20036;-52
2022/05/13 08:56:50;;;;;;;7.97;4.70;;;25.00;99.90;;;;;;5050931;28;20087;-52
2022/05/13 08:59:23;;;;;;;7.63;5.30;;;25.00;99.90;;;;;;5050966;28;20028;-52
2022/05/13 09:02:06;;;;;;;7.03;5.10;;;25.00;99.90;;;;;;5050698;28;20049;-52
2022/05/13 09:04:45;;;;;;;9.57;5.35;;;25.00;99.90;;;;;;5051709;28;20554;-52
2022/05/13 09:07:18;;;;;;;8.02;5.82;;;25.00;99.90;;;;;;5054896;28;20029;-52
2022/05/13 09:09:51;;;;;;;6.32;5.20;;;25.00;99.90;;;;;;5054795;28;20017;-53
2022/05/13 09:12:54;;;;;;;7.78;5.00;;;25.00;99.90;;;;;;5054847;28;20032;-52
2022/05/13 09:15:40;;;;;;;6.53;5.03;;;25.00;99.90;;;;;;5054700;28;20032;-52
2022/05/13 09:18:16;;;;;;;9.60;5.85;;;25.00;99.90;;;;;;5054553;28;20029;-52
2022/05/13 09:20:51;;;;;;;9.30;5.30;;;25.00;99.90;;;;;;5054565;28;20468;-52
2022/05/13 09:23:18;;;;;;;9.63;5.63;;;25.00;99.90;;;;;;5054521;28;20040;-52
2022/05/13 09:26:08;;;;;;;8.73;5.67;;;25.00;99.90;;;;;;5054430;28;20032;-52
2022/05/13 09:28:36;;;;;;;10.68;5.15;;;25.00;99.90;;;;;;5054531;28;20476;-52
2022/05/13 09:31:17;;;;;;;8.18;5.18;;;25.10;99.90;;;;;;5054470;28;20059;-53
2022/05/13 09:33:47;;;;;;;7.13;4.90;;;25.10;99.90;;;;;;5054378;28;20024;-52
2022/05/13 09:36:21;;;;;;;7.47;5.18;;;25.10;99.90;;;;;;5054445;28;20024;-52
2022/05/13 09:39:19;;;;;;;7.68;5.13;;;25.10;99.90;;;;;;5054213;28;20025;-52
2022/05/13 09:41:46;;;;;;;7.65;4.88;;;25.00;99.90;;;;;;5051038;28;20500;-52
2022/05/13 09:44:22;;;;;;;7.95;5.00;;;25.10;99.90;;;;;;5054220;28;20040;-52
2022/05/13 09:46:50;;;;;;;10.02;5.38;;;25.10;99.90;;;;;;5054314;28;20384;-53
2022/05/13 09:49:33;;;;;;;7.75;4.82;;;25.10;99.90;;;;;;5054195;28;20090;-52
2022/05/13 09:52:00;;;;;;;7.70;4.80;;;25.10;99.90;;;;;;5054195;28;20025;-53
2022/05/13 09:54:31;;;;;;;8.38;5.10;;;25.20;99.90;;;;;;5054274;28;20040;-52
2022/05/13 09:57:20;;;;;;;9.88;5.22;;;25.10;99.90;;;;;;5054194;28;20465;-53
2022/05/13 10:03:16;;;;;;;7.28;4.72;;;25.10;99.90;;;;;;5053792;28;20101;-52
2022/05/13 10:05:42;;;;;;;8.20;4.70;;;25.20;99.90;;;;;;5053835;28;20097;-53
2022/05/13 10:08:14;;;;;;;8.85;4.60;;;25.20;99.90;;;;;;5053809;28;20028;-53
2022/05/13 10:13:58;;;;;;;7.50;5.20;;;25.20;99.90;;;;;;5053827;28;20095;-52
2022/05/13 10:16:36;;;;;;;6.68;4.80;;;25.20;99.90;;;;;;5052985;28;20025;-53
2022/05/13 10:19:17;;;;;;;10.77;5.50;;;25.20;99.90;;;;;;5053652;28;20064;-52
2022/05/13 10:22:12;;;;;;;8.85;5.22;;;25.20;99.90;;;;;;5053527;28;20028;-53
2022/05/13 10:25:05;;;;;;;8.18;5.05;;;25.20;99.90;;;;;;5053368;28;20025;-52
2022/05/13 10:27:36;;;;;;;8.88;5.43;;;25.30;99.90;;;;;;5053545;28;20102;-52
2022/05/13 10:30:06;;;;;;;13.43;5.68;;;25.30;99.90;;;;;;5053357;28;20040;-52
2022/05/13 10:32:54;;;;;;;9.85;5.97;;;25.30;99.90;;;;;;5053141;28;20100;-52
2022/05/13 10:35:24;;;;;;;7.18;4.80;;;25.30;99.90;;;;;;5053259;28;20029;-52
2022/05/13 10:38:09;;;;;;;10.40;5.50;;;25.30;99.90;;;;;;5053164;28;20029;-53
2022/05/13 10:40:40;;;;;;;8.73;5.43;;;25.30;99.90;;;;;;5053155;28;20025;-52
2022/05/13 10:43:32;;;;;;;9.07;5.47;;;25.30;99.90;;;;;;5053250;28;20571;-52
2022/05/13 10:46:12;;;;;;;7.28;5.15;;;25.30;99.90;;;;;;5053220;28;20025;-52
2022/05/13 10:48:48;;;;;;;7.45;5.93;;;25.30;99.90;;;;;;5052890;28;20021;-52
2022/05/13 10:51:37;;;;;;;10.70;6.22;;;25.40;99.90;;;;;;5052853;28;20499;-52
2022/05/13 10:54:32;;;;;;;8.45;4.63;;;25.30;99.90;;;;;;5052783;28;20140;-53
2022/05/13 10:57:19;;;;;;;8.23;5.45;;;25.40;99.90;;;;;;5051689;28;20036;-52
2022/05/13 11:00:05;;;;;;;7.65;5.40;;;25.40;99.90;;;;;;5052646;28;20033;-53
2022/05/13 11:03:13;;;;;;;11.75;5.18;;;25.50;99.90;;;;;;5052701;28;20045;-53
2022/05/13 11:06:16;;;;;;;8.73;4.95;;;25.50;99.90;;;;;;5051326;28;20027;-51
2022/05/13 11:09:06;;;;;;;8.80;5.70;;;25.50;99.90;;;;;;5034073;28;20104;-53
2022/05/13 11:11:45;;;;;;;8.88;5.38;;;25.50;99.90;;;;;;5052790;28;20028;-53
2022/05/13 11:14:35;;;;;;;10.23;5.97;;;25.50;99.90;;;;;;5052530;28;20539;-52
2022/05/13 11:17:29;;;;;;;9.65;6.55;;;25.50;99.90;;;;;;5052635;28;20171;-52
2022/05/13 11:20:02;;;;;;;8.68;6.63;;;25.50;99.90;;;;;;5052273;28;20033;-52
2022/05/13 11:22:37;;;;;;;10.98;6.40;;;25.50;99.90;;;;;;5052501;28;20037;-52
2022/05/13 11:28:37;;;;;;;8.02;6.40;;;25.60;99.90;;;;;;5051351;28;20116;-52
2022/05/13 11:31:16;;;;;;;8.27;5.47;;;25.60;99.90;;;;;;5052382;28;20078;-52
2022/05/13 11:33:57;;;;;;;8.30;6.60;;;25.60;99.90;;;;;;5052182;28;20029;-52
2022/05/13 11:36:29;;;;;;;9.95;6.75;;;25.60;99.90;;;;;;5052166;28;20401;-53
2022/05/13 11:39:12;;;;;;;9.48;6.53;;;25.60;99.90;;;;;;5052032;28;20457;-52
2022/05/13 11:42:06;;;;;;;9.90;6.53;;;25.60;99.90;;;;;;5051756;28;20112;-52
2022/05/13 11:44:49;;;;;;;9.40;6.60;;;25.60;99.90;;;;;;5052125;28;20513;-52
2022/05/13 11:47:31;;;;;;;10.80;6.65;;;25.60;99.90;;;;;;5051830;28;20108;-52
2022/05/13 11:49:57;;;;;;;9.88;7.10;;;25.70;99.90;;;;;;5051889;28;20405;-52
2022/05/13 11:52:35;;;;;;;10.20;6.82;;;25.70;99.90;;;;;;5051819;28;20028;-52
2022/05/13 11:55:22;;;;;;;9.70;6.82;;;25.70;99.90;;;;;;5051895;28;20052;-52
2022/05/13 11:57:51;;;;;;;12.77;7.07;;;25.70;99.90;;;;;;5051703;28;20025;-52
2022/05/13 12:00:36;;;;;;;11.48;8.60;;;25.70;99.90;;;;;;5051374;28;20501;-52
2022/05/13 12:03:11;;;;;;;9.52;6.95;;;25.70;99.90;;;;;;5051599;28;20493;-52
2022/05/13 12:05:55;;;;;;;10.52;7.78;;;25.70;99.90;;;;;;5051363;28;20025;-52
2022/05/13 12:08:31;;;;;;;10.98;8.02;;;25.70;99.90;;;;;;5051467;28;20067;-52
2022/05/13 12:11:02;;;;;;;12.10;7.75;;;25.70;99.90;;;;;;5051511;28;20036;-52
2022/05/13 12:13:33;;;;;;;13.73;9.73;;;25.70;99.90;;;;;;5051146;28;20017;-53
2022/05/13 12:16:22;;;;;;;14.80;9.20;;;25.80;99.90;;;;;;5051336;28;20071;-53
2022/05/13 12:19:16;;;;;;;13.95;9.82;;;25.80;99.90;;;;;;5051223;28;20079;-52
2022/05/13 12:22:08;;;;;;;15.00;9.43;;;25.80;99.90;;;;;;5049952;28;20079;-53
2022/05/13 12:24:58;;;;;;;15.30;9.60;;;25.80;99.90;;;;;;5019639;28;20095;-52
2022/05/13 12:27:29;;;;;;;14.80;9.90;;;25.80;99.90;;;;;;5050996;28;20490;-53
2022/05/13 12:30:23;;;;;;;11.90;8.57;;;25.80;99.90;;;;;;5051082;28;20484;-52
2022/05/13 12:32:50;;;;;;;14.40;10.02;;;25.80;99.90;;;;;;5051014;28;20025;-51
2022/05/13 12:38:10;;;;;;;15.55;10.20;;;25.90;99.90;;;;;;5051179;28;20052;-52
2022/05/13 12:40:51;;;;;;;24.80;11.98;;;25.90;99.90;;;;;;5050720;28;20131;-52
2022/05/13 12:43:25;;;;;;;19.42;9.73;;;25.90;99.90;;;;;;5050698;28;20045;-52
2022/05/13 12:46:14;;;;;;;21.48;10.00;;;25.80;99.90;;;;;;5050783;28;20082;-52
2022/05/13 12:49:09;;;;;;;20.10;9.27;;;25.70;99.90;;;;;;5050994;28;20104;-52
2022/05/13 12:52:00;;;;;;;22.95;10.02;;;25.60;99.90;;;;;;5051017;28;20025;-52
2022/05/13 12:54:28;;;;;;;20.27;9.32;;;25.50;99.90;;;;;;5050535;28;20095;-52
2022/05/13 12:56:59;;;;;;;22.65;10.27;;;25.50;99.90;;;;;;5050878;28;20469;-52
2022/05/13 12:59:31;;;;;;;22.40;9.48;;;25.40;99.90;;;;;;5050519;28;20060;-52
2022/05/13 13:02:16;;;;;;;19.75;9.32;;;25.30;99.90;;;;;;5050726;28;20044;-51
2022/05/13 13:04:53;;;;;;;20.77;9.25;;;25.30;99.90;;;;;;5050726;28;20518;-51
2022/05/13 13:07:21;;;;;;;18.88;8.98;;;25.20;99.90;;;;;;5050520;28;20029;-50
2022/05/13 13:09:53;;;;;;;18.60;9.20;;;25.10;99.90;;;;;;5050629;28;20035;-52
2022/05/13 13:12:42;;;;;;;22.33;10.38;;;25.20;99.90;;;;;;5050718;28;20037;-52
2022/05/13 13:15:21;;;;;;;20.65;10.82;;;25.20;99.90;;;;;;5050863;28;20500;-53
2022/05/13 13:17:59;;;;;;;17.67;9.57;;;25.10;99.90;;;;;;5050516;28;20453;-52
2022/05/13 13:20:26;;;;;;;;;;;25.10;99.90;;;;;;5051127;28;20496;-52
2022/05/13 13:22:58;;;;;;;;;;;25.00;99.90;;;;;;5050923;28;19921;-52
2022/05/13 13:25:42;;;;;;;19.88;8.63;;;25.10;99.90;;;;;;5050582;28;19909;-52
2022/05/13 13:28:31;;;;;;;24.02;10.20;;;25.00;99.90;;;;;;5050811;28;20060;-51
2022/05/13 13:31:05;;;;;;;27.38;11.05;;;25.00;99.90;;;;;;5050629;28;20025;-50
2022/05/13 13:33:36;;;;;;;18.80;9.70;;;25.00;99.90;;;;;;5050528;28;20519;-50
2022/05/13 13:36:15;;;;;;;17.90;9.60;;;24.90;99.90;;;;;;5050568;28;20029;-50
2022/05/13 13:38:47;;;;;;;23.10;11.25;;;25.00;99.90;;;;;;5050500;28;20021;-50
2022/05/13 13:41:31;;;;;;;25.75;11.38;;;24.90;99.90;;;;;;5050577;28;20497;-50
2022/05/13 13:43:59;;;;;;;27.92;16.00;;;24.90;99.90;;;;;;5050527;28;20041;-50